createdAt,value
2018-11-25T00:01:08.721Z,101389.77
2018-11-25T00:03:36.315Z,101381.86
2018-11-25T00:06:04.366Z,101371.42
2018-11-25T00:08:31.983Z,101379.23
2018-11-25T00:10:59.616Z,101376.62
2018-11-25T00:13:27.307Z,101377.11
2018-11-25T00:15:54.957Z,101374.09
2018-11-25T00:18:22.665Z,101372.36
2018-11-25T00:20:50.320Z,101375.83
2018-11-25T00:23:17.965Z,101376.67
2018-11-25T00:25:45.588Z,101370.13
2018-11-25T00:28:13.257Z,101367.94
2018-11-25T00:30:40.905Z,101373.59
2018-11-25T00:33:08.560Z,101374.06
2018-11-25T00:35:36.283Z,101369.23
2018-11-25T00:38:03.923Z,101366.21
2018-11-25T00:40:31.635Z,101367.52
2018-11-25T00:42:59.430Z,101372.34
2018-11-25T00:45:27.113Z,101366.22
2018-11-25T00:47:54.790Z,101367.95
2018-11-25T00:50:22.547Z,101366.63
2018-11-25T00:52:50.235Z,101362.72
2018-11-25T00:55:17.998Z,101371.03
2018-11-25T00:57:45.675Z,101366.66
2018-11-25T01:00:17.655Z,101364.48
2018-11-25T01:02:45.829Z,101363.60
2018-11-25T01:05:13.491Z,101371.89
2018-11-25T01:07:41.216Z,101364.01
2018-11-25T01:10:16.327Z,101359.66
2018-11-25T01:12:44.729Z,101366.21
2018-11-25T01:15:13.425Z,101367.95
2018-11-25T01:17:41.137Z,101364.50
2018-11-25T01:20:13.347Z,101364.48
2018-11-25T01:22:40.957Z,101370.17
2018-11-25T01:25:09.753Z,101369.28
2018-11-25T01:27:37.578Z,101373.67
2018-11-25T01:30:10.405Z,101372.78
2018-11-25T01:32:38.251Z,101368.44
2018-11-25T01:35:07.344Z,101373.69
2018-11-25T01:37:35.185Z,101364.93
2018-11-25T01:40:03.177Z,101369.28
2018-11-25T01:42:30.869Z,101364.93
2018-11-25T01:44:58.595Z,101364.03
2018-11-25T01:47:26.275Z,101360.55
2018-11-25T01:49:53.951Z,101362.32
2018-11-25T01:52:21.613Z,101357.14
2018-11-25T01:54:49.287Z,101361.06
2018-11-25T01:57:17.324Z,101360.16
2018-11-25T01:59:45.016Z,101357.07
2018-11-25T02:02:12.722Z,101361.89
2018-11-25T02:04:40.408Z,101355.76
2018-11-25T02:07:08.058Z,101358.38
2018-11-25T02:09:35.772Z,101352.31
2018-11-25T02:12:03.485Z,101351.00
2018-11-25T02:14:31.182Z,101351.00
2018-11-25T02:16:58.871Z,101358.86
2018-11-25T02:19:26.554Z,101353.16
2018-11-25T02:21:54.309Z,101351.89
2018-11-25T02:24:22.021Z,101354.51
2018-11-25T02:26:49.669Z,101345.34
2018-11-25T02:29:17.357Z,101352.31
2018-11-25T02:31:45.070Z,101353.14
2018-11-25T02:34:12.726Z,101348.81
2018-11-25T02:36:40.470Z,101338.84
2018-11-25T02:39:08.732Z,101348.42
2018-11-25T02:41:36.479Z,101347.98
2018-11-25T02:44:04.257Z,101350.58
2018-11-25T02:46:31.936Z,101342.34
2018-11-25T02:48:59.708Z,101346.60
2018-11-25T02:51:27.354Z,101345.34
2018-11-25T02:53:55.240Z,101345.76
2018-11-25T02:56:23.188Z,101348.81
2018-11-25T02:58:50.829Z,101344.06
2018-11-25T03:01:19.051Z,101342.75
2018-11-25T03:03:46.764Z,101344.07
2018-11-25T03:08:48.715Z,101341.84
2018-11-25T03:11:16.394Z,101339.23
2018-11-25T03:13:44.070Z,101333.16
2018-11-25T03:16:11.723Z,101345.75
2018-11-25T03:18:39.522Z,101342.25
2018-11-25T03:21:07.164Z,101340.05
2018-11-25T03:23:34.950Z,101339.21
2018-11-25T03:26:02.611Z,101337.90
2018-11-25T03:28:30.265Z,101341.41
2018-11-25T03:30:57.953Z,101344.46
2018-11-25T03:33:25.636Z,101339.66
2018-11-25T03:35:53.385Z,101344.47
2018-11-25T03:38:21.058Z,101341.84
2018-11-25T03:40:48.780Z,101346.66
2018-11-25T03:43:16.588Z,101342.72
2018-11-25T03:45:44.264Z,101340.14
2018-11-25T03:48:11.885Z,101344.47
2018-11-25T03:50:39.644Z,101343.64
2018-11-25T03:53:07.325Z,101341.86
2018-11-25T03:55:35.099Z,101344.45
2018-11-25T03:58:02.751Z,101347.11
2018-11-25T04:00:30.396Z,101353.20
2018-11-25T04:02:58.098Z,101343.58
2018-11-25T04:05:25.811Z,101347.98
2018-11-25T04:07:53.508Z,101345.39
2018-11-25T04:10:21.163Z,101349.80
2018-11-25T04:12:48.852Z,101342.37
2018-11-25T04:15:17.163Z,101341.05
2018-11-25T04:17:45.146Z,101341.08
2018-11-25T04:20:17.484Z,101334.52
2018-11-25T04:22:45.214Z,101341.05
2018-11-25T04:25:13.166Z,101339.31
2018-11-25T04:27:40.822Z,101337.50
2018-11-25T04:30:13.065Z,101336.62
2018-11-25T04:32:40.913Z,101337.02
2018-11-25T04:35:09.721Z,101328.33
2018-11-25T04:37:37.421Z,101339.12
2018-11-25T04:40:06.534Z,101336.11
2018-11-25T04:42:34.164Z,101342.61
2018-11-25T04:45:01.918Z,101344.77
2018-11-25T04:47:29.574Z,101344.75
2018-11-25T04:49:57.214Z,101350.85
2018-11-25T04:52:24.839Z,101343.87
2018-11-25T04:54:52.587Z,101351.28
2018-11-25T04:57:20.233Z,101348.67
2018-11-25T04:59:47.878Z,101349.98
2018-11-25T05:02:15.658Z,101345.13
2018-11-25T05:04:43.289Z,101344.22
2018-11-25T05:07:10.953Z,101344.20
2018-11-25T05:09:38.664Z,101345.09
2018-11-25T05:12:06.300Z,101340.68
2018-11-25T05:14:33.987Z,101340.25
2018-11-25T05:17:01.688Z,101338.05
2018-11-25T05:19:29.347Z,101343.70
2018-11-25T05:21:57.074Z,101340.66
2018-11-25T05:24:24.767Z,101343.70
2018-11-25T05:26:52.500Z,101341.98
2018-11-25T05:29:20.180Z,101341.95
2018-11-25T05:31:47.816Z,101345.00
2018-11-25T05:34:15.447Z,101343.67
2018-11-25T05:36:43.060Z,101341.48
2018-11-25T05:39:10.796Z,101347.59
2018-11-25T05:41:38.433Z,101342.78
2018-11-25T05:44:06.064Z,101342.75
2018-11-25T05:46:33.795Z,101348.81
2018-11-25T05:49:01.494Z,101343.16
2018-11-25T05:51:29.212Z,101349.30
2018-11-25T05:53:56.871Z,101347.98
2018-11-25T05:56:24.535Z,101350.59
2018-11-25T05:58:52.237Z,101352.77
2018-11-25T06:01:19.930Z,101349.71
2018-11-25T06:03:47.545Z,101351.91
2018-11-25T06:06:15.219Z,101358.01
2018-11-25T06:08:42.897Z,101352.32
2018-11-25T06:11:10.571Z,101357.09
2018-11-25T06:13:38.361Z,101355.37
2018-11-25T06:16:06.007Z,101352.75
2018-11-25T06:18:33.805Z,101354.48
2018-11-25T06:21:01.508Z,101359.28
2018-11-25T06:23:29.161Z,101358.87
2018-11-25T06:25:56.791Z,101361.51
2018-11-25T06:28:24.471Z,101368.94
2018-11-25T06:30:52.167Z,101364.56
2018-11-25T06:33:19.771Z,101374.20
2018-11-25T06:35:47.538Z,101373.33
2018-11-25T06:38:15.153Z,101372.50
2018-11-25T06:40:42.775Z,101374.66
2018-11-25T06:43:10.465Z,101372.90
2018-11-25T06:45:38.059Z,101373.73
2018-11-25T06:48:06.502Z,101372.91
2018-11-25T06:50:34.156Z,101376.83
2018-11-25T06:53:01.767Z,101377.25
2018-11-25T06:55:29.463Z,101385.11
2018-11-25T06:57:57.081Z,101383.31
2018-11-25T07:00:25.485Z,101388.55
2018-11-25T07:02:53.261Z,101385.08
2018-11-25T07:05:20.932Z,101395.56
2018-11-25T07:07:48.637Z,101392.96
2018-11-25T07:10:17.999Z,101392.96
2018-11-25T07:12:45.941Z,101398.22
2018-11-25T07:15:15.514Z,101396.41
2018-11-25T07:17:43.126Z,101394.24
2018-11-25T07:20:14.207Z,101397.30
2018-11-25T07:22:41.872Z,101394.75
2018-11-25T07:25:17.625Z,101394.69
2018-11-25T07:27:45.320Z,101399.52
2018-11-25T07:30:17.147Z,101396.00
2018-11-25T07:32:44.960Z,101404.28
2018-11-25T07:35:12.636Z,101397.73
2018-11-25T07:37:40.438Z,101403.86
2018-11-25T07:40:12.196Z,101409.12
2018-11-25T07:42:39.866Z,101406.04
2018-11-25T07:45:13.809Z,101412.61
2018-11-25T07:47:41.441Z,101415.18
2018-11-25T07:50:11.129Z,101418.28
2018-11-25T07:52:38.813Z,101419.14
2018-11-25T07:55:24.569Z,101419.14
2018-11-25T07:57:53.254Z,101415.23
2018-11-25T08:00:21.973Z,101416.95
2018-11-25T08:02:49.634Z,101416.54
2018-11-25T08:05:20.262Z,101419.12
2018-11-25T08:07:47.945Z,101414.35
2018-11-25T08:10:15.851Z,101418.71
2018-11-25T08:12:43.743Z,101419.57
2018-11-25T08:15:13.508Z,101425.25
2018-11-25T08:17:41.150Z,101425.67
2018-11-25T08:20:11.969Z,101428.30
2018-11-25T08:22:39.671Z,101425.25
2018-11-25T08:25:08.699Z,101430.91
2018-11-25T08:27:36.333Z,101423.92
2018-11-25T08:30:06.333Z,101427.86
2018-11-25T08:32:34.009Z,101424.81
2018-11-25T08:35:01.660Z,101421.73
2018-11-25T08:37:29.347Z,101427.86
2018-11-25T08:39:57.025Z,101423.91
2018-11-25T08:42:24.710Z,101423.03
2018-11-25T08:44:52.355Z,101426.53
2018-11-25T08:47:20.047Z,101427.84
2018-11-25T08:49:47.732Z,101429.16
2018-11-25T08:52:15.348Z,101432.18
2018-11-25T08:54:42.997Z,101431.77
2018-11-25T08:57:10.693Z,101436.55
2018-11-25T08:59:38.354Z,101434.39
2018-11-25T09:02:06.207Z,101433.06
2018-11-25T09:04:33.993Z,101430.45
2018-11-25T09:07:01.694Z,101430.47
2018-11-25T09:09:30.388Z,101431.30
2018-11-25T09:11:57.158Z,101433.48
2018-11-25T09:14:24.819Z,101434.31
2018-11-25T09:16:52.457Z,101433.00
2018-11-25T09:19:20.115Z,101431.24
2018-11-25T09:21:47.850Z,101432.97
2018-11-25T09:24:15.534Z,101435.59
2018-11-25T09:26:43.211Z,101435.61
2018-11-25T09:29:10.881Z,101435.56
2018-11-25T09:31:38.516Z,101432.46
2018-11-25T09:34:06.192Z,101433.37
2018-11-25T09:36:33.974Z,101430.75
2018-11-25T09:39:01.606Z,101431.62
2018-11-25T09:41:29.278Z,101430.72
2018-11-25T09:43:57.053Z,101433.76
2018-11-25T09:46:24.680Z,101430.25
2018-11-25T09:48:52.310Z,101432.88
2018-11-25T09:51:19.996Z,101437.67
2018-11-25T09:53:47.654Z,101428.95
2018-11-25T09:56:15.312Z,101432.02
2018-11-25T09:58:43.005Z,101434.16
2018-11-25T10:01:10.675Z,101438.51
2018-11-25T10:03:38.353Z,101435.89
2018-11-25T10:06:06.438Z,101437.61
2018-11-25T10:08:34.134Z,101438.48
2018-11-25T10:11:01.817Z,101432.37
2018-11-25T10:13:29.459Z,101433.67
2018-11-25T10:15:57.109Z,101435.44
2018-11-25T10:18:24.747Z,101428.44
2018-11-25T10:20:52.430Z,101426.72
2018-11-25T10:23:20.129Z,101425.81
2018-11-25T10:25:47.767Z,101431.06
2018-11-25T10:28:15.474Z,101426.69
2018-11-25T10:30:43.270Z,101422.77
2018-11-25T10:33:11.002Z,101422.33
2018-11-25T10:35:38.618Z,101422.27
2018-11-25T10:38:06.251Z,101422.71
2018-11-25T10:40:33.911Z,101422.71
2018-11-25T10:43:01.574Z,101417.41
2018-11-25T10:45:29.382Z,101420.01
2018-11-25T10:47:57.652Z,101416.48
2018-11-25T10:50:25.288Z,101414.33
2018-11-25T10:52:52.962Z,101409.52
2018-11-25T10:55:21.307Z,101413.44
2018-11-25T10:57:50.014Z,101412.52
2018-11-25T11:00:27.407Z,101402.91
2018-11-25T11:03:00.561Z,101402.91
2018-11-25T11:05:33.774Z,101401.12
2018-11-25T11:08:01.431Z,101398.50
2018-11-25T11:10:29.059Z,101398.05
2018-11-25T11:12:56.699Z,101399.36
2018-11-25T11:15:24.305Z,101399.29
2018-11-25T11:17:52.022Z,101393.59
2018-11-25T11:20:19.672Z,101393.11
2018-11-25T11:22:47.350Z,101393.61
2018-11-25T11:25:15.047Z,101397.98
2018-11-25T11:27:42.693Z,101396.66
2018-11-25T11:30:11.049Z,101399.29
2018-11-25T11:39:43.041Z,101397.16
2018-11-25T11:42:10.706Z,101392.31
2018-11-25T11:44:38.353Z,101395.80
2018-11-25T11:47:06.086Z,101398.86
2018-11-25T11:49:33.732Z,101399.29
2018-11-25T11:52:01.393Z,101403.28
2018-11-25T11:54:29.180Z,101402.39
2018-11-25T11:56:56.822Z,101403.30
2018-11-25T11:59:24.442Z,101397.59
2018-11-25T12:01:52.157Z,101400.67
2018-11-25T12:04:19.798Z,101394.13
2018-11-25T12:06:47.493Z,101401.98
2018-11-25T12:09:15.235Z,101406.33
2018-11-25T12:11:42.895Z,101414.61
2018-11-25T12:14:10.625Z,101402.84
2018-11-25T12:16:38.327Z,101402.41
2018-11-25T12:19:06.073Z,101399.77
2018-11-25T12:21:33.730Z,101398.48
2018-11-25T12:24:01.383Z,101408.95
2018-11-25T12:26:29.136Z,101396.27
2018-11-25T12:28:56.899Z,101398.45
2018-11-25T12:31:24.747Z,101395.42
2018-11-25T12:33:52.804Z,101402.81
2018-11-25T12:36:20.517Z,101394.98
2018-11-25T12:38:48.261Z,101394.55
2018-11-25T12:41:15.914Z,101391.92
2018-11-25T12:43:43.573Z,101399.36
2018-11-25T12:46:11.393Z,101393.23
2018-11-25T12:48:39.067Z,101396.77
2018-11-25T12:51:06.823Z,101391.12
2018-11-25T12:53:34.489Z,101389.81
2018-11-25T12:56:02.114Z,101394.25
2018-11-25T12:58:29.832Z,101397.73
2018-11-25T13:00:57.522Z,101400.80
2018-11-25T13:03:25.186Z,101400.36
2018-11-25T13:05:52.859Z,101408.22
2018-11-25T13:08:20.526Z,101413.52
2018-11-25T13:10:48.184Z,101409.58
2018-11-25T13:13:15.879Z,101399.95
2018-11-25T13:15:43.533Z,101401.72
2018-11-25T13:18:11.190Z,101398.22
2018-11-25T13:20:38.820Z,101392.94
2018-11-25T13:23:06.787Z,101393.37
2018-11-25T13:25:34.418Z,101400.80
2018-11-25T13:28:02.101Z,101396.42
2018-11-25T13:30:30.903Z,101404.29
2018-11-25T13:32:59.963Z,101404.29
2018-11-25T13:35:29.242Z,101395.97
2018-11-25T13:37:56.975Z,101399.05
2018-11-25T13:40:24.630Z,101397.28
2018-11-25T13:42:52.269Z,101393.80
2018-11-25T13:45:20.721Z,101404.75
2018-11-25T13:47:48.407Z,101400.36
2018-11-25T13:50:16.054Z,101408.22
2018-11-25T13:52:43.706Z,101401.66
2018-11-25T13:55:15.924Z,101406.06
2018-11-25T13:57:43.641Z,101403.91
2018-11-25T14:00:29.010Z,101397.80
2018-11-25T14:02:56.666Z,101399.52
2018-11-25T14:05:24.339Z,101398.64
2018-11-25T14:07:51.986Z,101390.34
2018-11-25T14:10:21.967Z,101390.34
2018-11-25T14:12:49.721Z,101394.67
2018-11-25T14:15:17.368Z,101389.03
2018-11-25T14:17:44.990Z,101392.08
2018-11-25T14:20:12.696Z,101399.94
2018-11-25T14:22:40.301Z,101402.15
2018-11-25T14:25:10.058Z,101396.04
2018-11-25T14:27:37.675Z,101401.73
2018-11-25T14:30:16.227Z,101401.73
2018-11-25T14:32:43.909Z,101411.77
2018-11-25T14:35:13.392Z,101406.61
2018-11-25T14:37:41.052Z,101399.14
2018-11-25T14:40:10.575Z,101401.28
2018-11-25T14:42:38.320Z,101400.04
2018-11-25T14:45:08.539Z,101395.19
2018-11-25T14:47:36.229Z,101392.55
2018-11-25T14:50:04.671Z,101393.40
2018-11-25T14:52:32.446Z,101382.92
2018-11-25T14:55:00.130Z,101383.79
2018-11-25T14:57:27.848Z,101378.12
2018-11-25T14:59:55.531Z,101374.62
2018-11-25T15:02:23.363Z,101377.23
2018-11-25T15:04:51.017Z,101376.36
2018-11-25T15:07:18.701Z,101375.94
2018-11-25T15:09:46.361Z,101374.20
2018-11-25T15:12:14.021Z,101370.73
2018-11-25T15:14:41.752Z,101378.61
2018-11-25T15:17:09.419Z,101371.64
2018-11-25T15:19:37.070Z,101371.64
2018-11-25T15:22:04.763Z,101376.48
2018-11-25T15:24:32.494Z,101371.70
2018-11-25T15:27:00.212Z,101364.72
2018-11-25T15:29:27.890Z,101376.50
2018-11-25T15:31:55.694Z,101369.09
2018-11-25T15:34:23.465Z,101370.34
2018-11-25T15:36:51.128Z,101376.47
2018-11-25T15:39:18.864Z,101380.45
2018-11-25T15:41:53.183Z,101391.82
2018-11-25T15:44:20.848Z,101393.16
2018-11-25T15:46:48.508Z,101392.73
2018-11-25T15:49:16.186Z,101403.23
2018-11-25T15:51:43.847Z,101397.99
2018-11-25T15:54:11.561Z,101401.48
2018-11-25T15:56:39.251Z,101398.41
2018-11-25T15:59:06.996Z,101411.10
2018-11-25T16:01:34.663Z,101408.95
2018-11-25T16:04:02.339Z,101411.52
2018-11-25T16:06:32.573Z,101412.42
2018-11-25T16:09:00.206Z,101414.62
2018-11-25T16:11:27.945Z,101413.72
2018-11-25T16:13:55.581Z,101414.62
2018-11-25T16:16:23.312Z,101419.84
2018-11-25T16:18:51.369Z,101419.86
2018-11-25T16:21:19.018Z,101419.86
2018-11-25T16:23:46.798Z,101420.76
2018-11-25T16:26:21.417Z,101422.05
2018-11-25T16:28:51.592Z,101427.73
2018-11-25T16:31:19.240Z,101422.91
2018-11-25T16:33:47.030Z,101428.56
2018-11-25T16:36:14.711Z,101426.41
2018-11-25T16:38:42.333Z,101428.12
2018-11-25T16:41:09.985Z,101425.98
2018-11-25T16:43:37.617Z,101422.90
2018-11-25T16:46:05.326Z,101425.55
2018-11-25T16:48:33.042Z,101423.82
2018-11-25T16:51:00.698Z,101424.69
2018-11-25T16:53:28.400Z,101419.86
2018-11-25T16:55:55.990Z,101423.80
2018-11-25T16:58:23.717Z,101431.66
2018-11-25T17:00:51.324Z,101429.87
2018-11-25T17:03:19.002Z,101436.01
2018-11-25T17:05:49.328Z,101437.80
2018-11-25T17:08:36.241Z,101441.73
2018-11-25T17:11:03.920Z,101445.21
2018-11-25T17:13:31.679Z,101443.89
2018-11-25T17:15:59.358Z,101447.39
2018-11-25T17:18:27.041Z,101445.21
2018-11-25T17:20:54.763Z,101444.38
2018-11-25T17:23:22.482Z,101445.69
2018-11-25T17:25:50.226Z,101450.04
2018-11-25T17:28:17.878Z,101448.73
2018-11-25T17:30:45.582Z,101450.02
2018-11-25T17:33:13.197Z,101458.77
2018-11-25T17:35:40.889Z,101451.75
2018-11-25T17:38:08.591Z,101451.75
2018-11-25T17:40:36.248Z,101450.02
2018-11-25T17:43:04.008Z,101455.69
2018-11-25T17:45:31.640Z,101451.77
2018-11-25T17:47:59.298Z,101452.23
2018-11-25T17:50:28.461Z,101453.53
2018-11-25T17:52:56.187Z,101453.94
2018-11-25T17:55:26.203Z,101449.20
2018-11-25T17:57:53.888Z,101461.39
2018-11-25T18:00:28.977Z,101459.62
2018-11-25T18:02:56.734Z,101462.23
2018-11-25T18:05:24.390Z,101465.75
2018-11-25T18:07:52.050Z,101465.74
2018-11-25T18:10:19.706Z,101467.89
2018-11-25T18:12:47.330Z,101466.63
2018-11-25T18:15:16.677Z,101466.17
2018-11-25T18:18:01.396Z,101464.00
2018-11-25T18:20:33.345Z,101464.88
2018-11-25T18:23:01.006Z,101470.57
2018-11-25T18:25:28.649Z,101464.03
2018-11-25T18:28:00.532Z,101473.63
2018-11-25T18:30:24.173Z,101477.13
2018-11-25T18:32:51.818Z,101486.30
2018-11-25T18:35:19.503Z,101484.54
2018-11-25T18:37:47.203Z,101486.74
2018-11-25T18:40:14.854Z,101488.05
2018-11-25T18:42:43.373Z,101490.25
2018-11-25T18:45:12.478Z,101488.05
2018-11-25T18:47:40.098Z,101487.16
2018-11-25T18:50:12.172Z,101494.61
2018-11-25T18:52:40.058Z,101494.17
2018-11-25T18:55:06.588Z,101491.59
2018-11-25T18:57:34.219Z,101490.28
2018-11-25T19:00:01.866Z,101487.25
2018-11-25T19:02:41.949Z,101488.97
2018-11-25T19:05:09.821Z,101485.49
2018-11-25T19:07:37.491Z,101490.77
2018-11-25T19:10:10.145Z,101496.44
2018-11-25T19:12:44.004Z,101497.31
2018-11-25T19:15:07.441Z,101496.42
2018-11-25T19:17:35.105Z,101493.38
2018-11-25T19:20:03.714Z,101492.05
2018-11-25T19:22:31.386Z,101487.25
2018-11-25T19:24:59.003Z,101493.38
2018-11-25T19:27:26.677Z,101502.96
2018-11-25T19:29:54.297Z,101501.66
2018-11-25T19:32:21.966Z,101499.52
2018-11-25T19:34:49.634Z,101503.45
2018-11-25T19:37:17.283Z,101504.36
2018-11-25T19:39:45.042Z,101509.13
2018-11-25T19:42:12.679Z,101504.77
2018-11-25T19:44:40.291Z,101503.47
2018-11-25T19:47:07.938Z,101501.73
2018-11-25T19:49:35.611Z,101497.78
2018-11-25T19:52:03.221Z,101499.97
2018-11-25T19:54:30.846Z,101501.73
2018-11-25T19:56:58.617Z,101503.02
2018-11-25T19:59:26.261Z,101498.64
2018-11-25T20:01:54.086Z,101503.87
2018-11-25T20:04:21.716Z,101504.78
2018-11-25T20:06:49.517Z,101505.19
2018-11-25T20:09:17.147Z,101505.23
2018-11-25T20:11:44.802Z,101512.22
2018-11-25T20:14:12.490Z,101507.86
2018-11-25T20:16:45.641Z,101517.88
2018-11-25T20:19:13.298Z,101510.44
2018-11-25T20:21:46.451Z,101510.91
2018-11-25T20:24:14.092Z,101507.89
2018-11-25T20:26:47.349Z,101507.48
2018-11-25T20:29:14.975Z,101510.52
2018-11-25T20:31:42.729Z,101510.12
2018-11-25T20:34:10.351Z,101513.23
2018-11-25T20:36:37.956Z,101511.91
2018-11-25T20:39:13.683Z,101510.61
2018-11-25T20:41:41.364Z,101512.36
2018-11-25T20:44:09.031Z,101521.13
2018-11-25T20:46:42.379Z,101513.31
2018-11-25T20:49:10.090Z,101521.17
2018-11-25T20:51:43.440Z,101521.59
2018-11-25T20:54:11.083Z,101517.27
2018-11-25T20:56:38.722Z,101518.09
2018-11-25T20:59:06.525Z,101520.73
2018-11-25T21:01:34.203Z,101519.89
2018-11-25T21:04:01.798Z,101517.68
2018-11-25T21:06:29.615Z,101525.56
2018-11-25T21:08:57.250Z,101522.09
2018-11-25T21:11:24.926Z,101519.91
2018-11-25T21:13:52.685Z,101522.11
2018-11-25T21:16:20.328Z,101521.69
2018-11-25T21:18:47.952Z,101522.13
2018-11-25T21:21:15.622Z,101530.86
2018-11-25T21:23:43.289Z,101523.42
2018-11-25T21:26:10.942Z,101523.43
2018-11-25T21:28:38.565Z,101520.81
2018-11-25T21:31:06.196Z,101526.13
2018-11-25T21:33:33.789Z,101514.38
2018-11-25T21:36:01.535Z,101513.91
2018-11-25T21:38:29.146Z,101514.33
2018-11-25T21:40:56.810Z,101513.02
2018-11-25T21:43:24.481Z,101511.30
2018-11-25T21:45:52.168Z,101516.07
2018-11-25T21:48:19.852Z,101515.66
2018-11-25T21:50:47.492Z,101511.74
2018-11-25T21:53:15.214Z,101518.29
2018-11-25T21:55:42.867Z,101517.44
2018-11-25T21:58:10.470Z,101513.11
2018-11-25T22:00:38.098Z,101524.84
2018-11-25T22:03:05.810Z,101520.92
2018-11-25T22:05:33.377Z,101512.20
2018-11-25T22:08:01.054Z,101506.55
2018-11-25T22:10:28.672Z,101507.41
2018-11-25T22:12:56.361Z,101502.63
2018-11-25T22:15:24.114Z,101503.94
2018-11-25T22:17:51.720Z,101504.83
2018-11-25T22:20:19.355Z,101510.07
2018-11-25T22:22:47.021Z,101505.25
2018-11-25T22:25:16.828Z,101509.13
2018-11-25T22:27:44.570Z,101506.09
2018-11-25T22:30:14.342Z,101498.66
2018-11-25T22:32:42.030Z,101494.72
2018-11-25T22:35:11.026Z,101493.00
2018-11-25T22:37:38.676Z,101494.31
2018-11-25T22:40:08.135Z,101494.72
2018-11-25T22:42:35.892Z,101506.97
2018-11-25T22:45:03.821Z,101510.49
2018-11-25T22:47:31.444Z,101513.53
2018-11-25T22:49:59.095Z,101522.23
2018-11-25T22:52:26.736Z,101519.61
2018-11-25T22:54:54.382Z,101523.12
2018-11-25T22:57:22.106Z,101526.62
2018-11-25T22:59:49.722Z,101524.89
2018-11-25T23:02:17.405Z,101524.84
2018-11-25T23:04:56.325Z,101524.89
2018-11-25T23:07:23.967Z,101527.03
2018-11-25T23:09:51.601Z,101534.47
2018-11-25T23:12:19.276Z,101538.41
2018-11-25T23:14:46.899Z,101544.96
2018-11-25T23:17:14.538Z,101544.12
2018-11-25T23:19:42.315Z,101542.77
2018-11-25T23:22:09.924Z,101543.22
2018-11-25T23:24:37.522Z,101541.87
2018-11-25T23:27:05.218Z,101543.64
2018-11-25T23:29:32.903Z,101534.49
2018-11-25T23:32:00.564Z,101534.07
2018-11-25T23:34:28.177Z,101537.99
2018-11-25T23:36:55.831Z,101536.69
2018-11-25T23:39:23.636Z,101536.69
2018-11-25T23:41:51.255Z,101534.91
2018-11-25T23:44:18.873Z,101534.91
2018-11-25T23:46:46.555Z,101534.07
2018-11-25T23:49:14.223Z,101534.55
2018-11-25T23:51:41.993Z,101534.50
2018-11-25T23:54:09.654Z,101531.45
2018-11-25T23:56:37.282Z,101530.57
2018-11-25T23:59:05.445Z,101531.88
